Time;durP1;ratioP1;P1;durP2;ratioP2;P2;SDS_P1;SDS_P2;PMS_P1;PMS_P2;Temp;Humidity;BMP_temperature;BMP_pressure;BME280_temperature;BME280_humidity;BME280_pressure;Samples;Min_cycle;Max_cycle;Signal;HPM_P1;HPM_P2
2021/10/17 00:02:07;;;;;;;11.13;10.30;;;4.30;99.90;;;;;;5070648;28;20190;-63
2021/10/17 00:04:33;;;;;;;15.93;10.73;;;4.30;99.90;;;;;;5063613;28;20203;-63
2021/10/17 00:06:58;;;;;;;12.30;9.90;;;4.20;99.90;;;;;;5050872;28;20179;-63
2021/10/17 00:09:24;;;;;;;13.87;10.13;;;4.20;99.90;;;;;;5055713;28;20177;-63
2021/10/17 00:11:49;;;;;;;11.87;10.47;;;4.20;99.90;;;;;;5070877;28;20205;-63
2021/10/17 00:14:15;;;;;;;12.73;10.97;;;4.20;99.90;;;;;;5066745;28;20202;-63
2021/10/17 00:16:42;;;;;;;11.50;10.57;;;4.20;99.90;;;;;;5050879;28;20171;-62
2021/10/17 00:19:07;;;;;;;12.73;11.07;;;4.20;99.90;;;;;;5052185;28;20179;-64
2021/10/17 00:21:33;;;;;;;12.00;10.83;;;4.10;99.90;;;;;;5070685;28;20316;-63
2021/10/17 00:23:59;;;;;;;11.63;10.47;;;4.10;99.90;;;;;;5073318;28;20182;-63
2021/10/17 00:26:24;;;;;;;11.47;10.13;;;4.10;99.90;;;;;;5054359;28;20179;-63
2021/10/17 00:28:50;;;;;;;12.23;11.00;;;4.10;99.90;;;;;;5055300;28;20249;-62
2021/10/17 00:31:16;;;;;;;11.53;10.33;;;4.00;99.90;;;;;;5053938;28;20173;-64
2021/10/17 00:33:41;;;;;;;13.47;11.47;;;4.00;99.90;;;;;;5054153;28;20194;-63
2021/10/17 00:36:07;;;;;;;13.03;10.07;;;4.00;99.90;;;;;;5073884;28;20178;-63
2021/10/17 00:38:32;;;;;;;11.60;10.50;;;4.10;99.90;;;;;;5074113;28;20194;-63
2021/10/17 00:40:58;;;;;;;11.67;10.57;;;4.10;99.90;;;;;;5055630;28;20186;-62
2021/10/17 00:43:24;;;;;;;14.03;11.53;;;4.10;99.90;;;;;;5053717;28;20229;-63
2021/10/17 00:45:50;;;;;;;11.00;10.10;;;4.00;99.90;;;;;;5070098;28;20178;-63
2021/10/17 00:48:15;;;;;;;12.73;11.20;;;4.00;99.90;;;;;;5073989;28;20178;-64
2021/10/17 00:50:41;;;;;;;14.07;11.73;;;4.00;99.90;;;;;;5058994;28;20179;-64
2021/10/17 00:53:06;;;;;;;12.10;11.10;;;4.10;99.90;;;;;;5053648;28;20244;-64
2021/10/17 00:55:32;;;;;;;12.97;11.57;;;4.10;99.90;;;;;;5066448;28;20182;-64
2021/10/17 00:58:01;;;;;;;13.80;12.37;;;4.10;99.90;;;;;;5064872;28;20206;-63
2021/10/17 01:00:27;;;;;;;14.30;10.43;;;4.10;99.90;;;;;;5056584;28;20236;-63
2021/10/17 01:02:53;;;;;;;12.00;10.87;;;4.10;99.90;;;;;;5073572;28;20292;-63
2021/10/17 01:05:19;;;;;;;12.33;11.27;;;4.10;99.90;;;;;;5071448;28;20179;-63
2021/10/17 01:07:46;;;;;;;12.50;11.30;;;4.00;99.90;;;;;;5053715;28;20554;-63
2021/10/17 01:10:13;;;;;;;12.17;11.13;;;4.00;99.90;;;;;;5053209;28;20171;-63
2021/10/17 01:12:38;;;;;;;12.33;11.10;;;3.90;99.90;;;;;;5073396;28;20591;-64
2021/10/17 01:15:05;;;;;;;13.13;11.83;;;3.90;99.90;;;;;;5073410;28;20178;-63
2021/10/17 01:17:33;;;;;;;11.87;10.80;;;3.90;99.90;;;;;;5054201;28;20191;-62
2021/10/17 01:19:59;;;;;;;12.90;11.60;;;3.80;99.90;;;;;;5053003;28;20178;-63
2021/10/17 01:22:25;;;;;;;13.37;11.83;;;3.80;99.90;;;;;;5070512;28;20217;-63
2021/10/17 01:24:53;;;;;;;12.87;11.67;;;3.80;99.90;;;;;;5071632;28;20174;-63
2021/10/17 01:27:18;;;;;;;14.00;11.60;;;3.90;99.90;;;;;;5073083;28;20162;-64
2021/10/17 01:29:47;;;;;;;12.77;11.60;;;3.80;99.90;;;;;;5057692;28;20273;-61
2021/10/17 01:32:12;;;;;;;12.23;11.30;;;3.80;99.90;;;;;;5052921;28;20632;-63
2021/10/17 01:34:38;;;;;;;18.47;12.03;;;3.80;99.90;;;;;;5065736;28;20227;-63
2021/10/17 01:37:04;;;;;;;16.00;13.07;;;3.80;99.90;;;;;;5072904;28;20170;-63
2021/10/17 01:39:29;;;;;;;14.87;12.00;;;3.80;99.90;;;;;;5060809;28;20190;-63
2021/10/17 01:41:55;;;;;;;14.60;12.13;;;3.90;99.90;;;;;;5052907;28;20202;-63
2021/10/17 01:44:27;;;;;;;14.43;12.27;;;3.90;99.90;;;;;;5062606;28;20716;-63
2021/10/17 01:46:54;;;;;;;12.30;11.20;;;3.90;99.90;;;;;;5072829;28;20209;-63
2021/10/17 01:49:19;;;;;;;18.00;13.40;;;3.90;99.90;;;;;;5062756;28;20182;-64
2021/10/17 01:51:45;;;;;;;18.27;12.00;;;3.90;99.90;;;;;;5057504;28;20182;-63
2021/10/17 01:54:11;;;;;;;15.73;12.33;;;3.90;99.90;;;;;;5072533;28;20564;-63
2021/10/17 01:56:37;;;;;;;13.33;11.57;;;3.80;99.90;;;;;;5069187;28;20637;-63
2021/10/17 01:59:03;;;;;;;13.53;11.97;;;3.80;99.90;;;;;;5052513;28;20194;-63
2021/10/17 02:01:28;;;;;;;15.67;11.70;;;3.70;99.90;;;;;;5053738;28;20175;-63
2021/10/17 02:03:55;;;;;;;14.77;11.67;;;3.70;99.90;;;;;;5072358;28;20210;-63
2021/10/17 02:06:21;;;;;;;13.30;11.97;;;3.60;99.90;;;;;;5071926;28;20166;-63
2021/10/17 02:08:46;;;;;;;14.10;11.93;;;3.60;99.90;;;;;;5052596;28;20552;-63
2021/10/17 02:11:12;;;;;;;14.33;12.53;;;3.60;99.90;;;;;;5052015;28;20666;-63
2021/10/17 02:13:39;;;;;;;12.70;11.43;;;3.50;99.90;;;;;;5070338;28;20209;-63
2021/10/17 02:16:05;;;;;;;17.83;12.20;;;3.50;99.90;;;;;;5072184;28;20223;-63
2021/10/17 02:18:31;;;;;;;17.83;12.93;;;3.50;99.90;;;;;;5056111;28;20179;-68
2021/10/17 02:20:56;;;;;;;14.60;13.23;;;3.60;99.90;;;;;;5065506;28;20273;-66
2021/10/17 02:23:22;;;;;;;15.17;11.57;;;3.70;99.90;;;;;;5072867;28;20210;-68
2021/10/17 02:25:48;;;;;;;15.03;12.27;;;3.80;99.90;;;;;;5062037;28;20241;-65
2021/10/17 02:28:13;;;;;;;13.17;11.70;;;3.80;99.90;;;;;;5054730;28;20257;-65
2021/10/17 02:30:39;;;;;;;15.37;12.37;;;3.80;99.90;;;;;;5072695;28;20182;-64
2021/10/17 02:33:05;;;;;;;12.50;11.23;;;3.70;99.90;;;;;;5072909;28;20277;-68
2021/10/17 02:35:30;;;;;;;12.63;11.40;;;3.80;99.90;;;;;;5053232;28;20183;-65
2021/10/17 02:37:56;;;;;;;12.00;10.90;;;3.80;99.90;;;;;;5052897;28;20174;-66
2021/10/17 02:40:21;;;;;;;17.20;12.33;;;3.70;99.90;;;;;;5070296;28;20190;-65
2021/10/17 02:42:47;;;;;;;12.83;11.73;;;3.60;99.90;;;;;;5072755;28;20213;-68
2021/10/17 02:45:13;;;;;;;13.03;11.43;;;3.50;99.90;;;;;;5056028;28;20187;-66
2021/10/17 02:47:38;;;;;;;13.17;11.97;;;3.50;99.90;;;;;;5052601;28;20167;-64
2021/10/17 02:50:05;;;;;;;12.67;11.53;;;3.40;99.90;;;;;;5067026;28;20189;-69
2021/10/17 02:52:31;;;;;;;13.27;12.10;;;3.50;99.90;;;;;;5058661;28;20202;-65
2021/10/17 02:54:57;;;;;;;13.70;12.50;;;3.40;99.90;;;;;;5052639;28;20237;-64
2021/10/17 02:57:22;;;;;;;15.47;13.87;;;3.40;99.90;;;;;;5064464;28;20235;-66
2021/10/17 02:59:48;;;;;;;15.23;13.47;;;3.30;99.90;;;;;;5072371;28;20597;-67
2021/10/17 03:02:14;;;;;;;14.50;13.10;;;3.40;99.90;;;;;;5061422;28;20702;-67
2021/10/17 03:04:39;;;;;;;13.40;12.30;;;3.40;99.90;;;;;;5052559;28;20270;-65
2021/10/17 03:07:05;;;;;;;13.77;12.47;;;3.40;99.90;;;;;;5061087;28;20666;-65
2021/10/17 03:09:31;;;;;;;20.77;13.07;;;3.40;99.90;;;;;;5072185;28;20260;-63
2021/10/17 03:11:56;;;;;;;13.40;12.27;;;3.40;99.90;;;;;;5065130;28;20181;-65
2021/10/17 03:14:22;;;;;;;14.47;13.13;;;3.40;99.90;;;;;;5052262;28;20199;-68
2021/10/17 03:16:48;;;;;;;14.90;11.93;;;3.50;99.90;;;;;;5058843;28;20213;-66
2021/10/17 03:19:14;;;;;;;18.00;13.97;;;3.50;99.90;;;;;;5072160;28;20170;-64
2021/10/17 03:21:40;;;;;;;15.03;13.63;;;3.60;99.90;;;;;;5067318;28;20206;-66
2021/10/17 03:24:06;;;;;;;14.93;13.20;;;3.70;99.90;;;;;;5052075;28;20675;-65
2021/10/17 03:26:32;;;;;;;13.93;12.63;;;3.70;99.90;;;;;;5055403;28;20178;-63
2021/10/17 03:28:57;;;;;;;14.83;13.33;;;3.70;99.90;;;;;;5072258;28;20650;-68
2021/10/17 03:31:23;;;;;;;18.80;13.60;;;3.70;99.90;;;;;;5070099;28;20227;-68
2021/10/17 03:33:49;;;;;;;14.10;12.57;;;3.70;99.90;;;;;;5051997;28;20201;-65
2021/10/17 03:36:15;;;;;;;18.10;13.57;;;3.70;99.90;;;;;;5052159;28;20179;-66
2021/10/17 03:38:40;;;;;;;16.20;13.10;;;3.80;99.90;;;;;;5071983;28;20247;-62
2021/10/17 03:41:06;;;;;;;14.57;13.20;;;3.80;99.90;;;;;;5071763;28;20650;-64
2021/10/17 03:43:32;;;;;;;15.47;13.87;;;3.80;99.90;;;;;;5059110;28;20248;-65
2021/10/17 03:45:57;;;;;;;18.43;14.60;;;3.80;99.90;;;;;;5072164;28;20174;-67
2021/10/17 03:48:23;;;;;;;14.23;12.83;;;3.80;99.90;;;;;;5072144;28;20208;-64
2021/10/17 03:50:48;;;;;;;17.13;13.83;;;3.80;99.90;;;;;;5056177;28;20186;-64
2021/10/17 03:53:14;;;;;;;16.17;14.57;;;3.90;99.90;;;;;;5051850;28;20584;-62
2021/10/17 03:55:41;;;;;;;19.23;13.80;;;3.90;99.90;;;;;;5064840;28;20178;-61
2021/10/17 03:58:07;;;;;;;15.13;13.60;;;3.90;99.90;;;;;;5072673;28;20202;-62
2021/10/17 04:00:33;;;;;;;14.73;12.47;;;4.00;99.90;;;;;;5062341;28;20190;-62
2021/10/17 04:03:05;;;;;;;14.87;13.40;;;4.00;99.90;;;;;;5054545;28;20211;-62
2021/10/17 04:05:30;;;;;;;18.57;14.00;;;4.10;99.90;;;;;;5065840;28;20183;-63
2021/10/17 04:07:56;;;;;;;13.60;12.20;;;4.10;99.90;;;;;;5074736;28;20231;-62
2021/10/17 04:10:21;;;;;;;14.47;12.30;;;4.20;99.90;;;;;;5064714;28;20186;-63
2021/10/17 04:12:47;;;;;;;20.27;13.97;;;4.20;99.90;;;;;;5054494;28;20199;-62
2021/10/17 04:15:13;;;;;;;16.70;13.33;;;4.20;99.90;;;;;;5062029;28;20632;-63
2021/10/17 04:17:38;;;;;;;14.60;13.20;;;4.30;99.90;;;;;;5074519;28;20178;-63
2021/10/17 04:20:04;;;;;;;13.53;12.33;;;4.30;99.90;;;;;;5068032;28;20175;-62
2021/10/17 04:22:30;;;;;;;15.37;13.23;;;4.30;99.90;;;;;;5054303;28;20222;-62
2021/10/17 04:24:56;;;;;;;14.73;12.87;;;4.40;99.90;;;;;;5058228;28;20174;-62
2021/10/17 04:27:21;;;;;;;16.03;13.33;;;4.40;99.90;;;;;;5074344;28;20213;-63
2021/10/17 04:29:47;;;;;;;14.17;12.60;;;4.40;99.90;;;;;;5060425;28;20224;-63
2021/10/17 04:32:12;;;;;;;17.93;12.47;;;4.40;99.90;;;;;;5074073;28;20257;-63
2021/10/17 04:34:38;;;;;;;12.87;11.63;;;4.30;99.90;;;;;;5058572;28;20182;-62
2021/10/17 04:37:06;;;;;;;20.53;12.40;;;4.20;99.90;;;;;;5054368;28;20215;-61
2021/10/17 04:39:35;;;;;;;13.10;11.70;;;4.20;99.90;;;;;;5054994;28;20193;-62
2021/10/17 04:42:01;;;;;;;13.00;11.70;;;4.10;99.90;;;;;;5053946;28;20207;-62
2021/10/17 04:44:26;;;;;;;16.17;12.43;;;4.00;99.90;;;;;;5069058;28;20260;-62
2021/10/17 04:46:52;;;;;;;15.20;12.33;;;4.00;99.90;;;;;;5073823;28;20178;-63
2021/10/17 04:49:18;;;;;;;15.43;12.37;;;3.90;99.90;;;;;;5058881;28;20190;-62
2021/10/17 04:51:43;;;;;;;17.27;12.03;;;3.70;99.90;;;;;;5053760;28;20663;-63
2021/10/17 04:54:09;;;;;;;16.67;13.60;;;3.70;99.90;;;;;;5064992;28;20550;-62
2021/10/17 04:56:35;;;;;;;13.73;12.37;;;3.70;99.90;;;;;;5073830;28;20236;-62
2021/10/17 04:59:00;;;;;;;17.03;13.23;;;3.70;99.90;;;;;;5063492;28;20269;-62
2021/10/17 05:01:27;;;;;;;13.27;11.50;;;3.80;99.90;;;;;;5053921;28;20266;-62
2021/10/17 05:03:53;;;;;;;13.03;11.83;;;3.80;99.90;;;;;;5060135;28;20209;-62
2021/10/17 05:06:20;;;;;;;15.23;13.73;;;3.70;99.90;;;;;;5068952;28;20224;-62
2021/10/17 05:08:45;;;;;;;13.53;12.17;;;3.60;99.90;;;;;;5053430;28;20244;-62
2021/10/17 05:11:11;;;;;;;13.93;12.63;;;3.50;99.90;;;;;;5055969;28;20185;-61
2021/10/17 05:13:36;;;;;;;14.27;12.70;;;3.50;99.90;;;;;;5073534;28;20221;-62
2021/10/17 05:16:02;;;;;;;14.47;13.03;;;3.40;99.90;;;;;;5072605;28;20210;-62
2021/10/17 05:18:28;;;;;;;14.20;12.80;;;3.30;99.90;;;;;;5053314;28;20217;-61
2021/10/17 05:20:53;;;;;;;14.90;13.43;;;3.20;99.90;;;;;;5053187;28;20179;-61
2021/10/17 05:23:21;;;;;;;13.67;12.33;;;3.20;99.90;;;;;;5071883;28;20241;-61
2021/10/17 05:25:46;;;;;;;12.60;11.30;;;3.10;99.90;;;;;;5073309;28;20174;-61
2021/10/17 05:28:12;;;;;;;15.67;12.67;;;3.10;99.90;;;;;;5055832;28;20471;-61
2021/10/17 05:30:38;;;;;;;14.23;12.73;;;3.10;99.90;;;;;;5052894;28;20182;-61
2021/10/17 05:33:03;;;;;;;13.80;12.37;;;3.10;99.90;;;;;;5067948;28;20687;-61
2021/10/17 05:35:30;;;;;;;15.03;13.03;;;3.10;99.90;;;;;;5061557;28;20558;-62
2021/10/17 05:37:56;;;;;;;18.43;12.93;;;3.20;99.90;;;;;;5053032;28;20243;-62
2021/10/17 05:40:21;;;;;;;17.10;13.93;;;3.30;99.90;;;;;;5062461;28;20178;-62
2021/10/17 05:42:47;;;;;;;12.70;11.70;;;3.40;99.90;;;;;;5072758;28;20240;-62
2021/10/17 05:45:13;;;;;;;15.07;13.27;;;3.50;99.90;;;;;;5064448;28;20644;-62
2021/10/17 05:47:38;;;;;;;14.93;12.87;;;3.40;99.90;;;;;;5052819;28;20641;-62
2021/10/17 05:50:05;;;;;;;13.43;12.03;;;3.50;99.90;;;;;;5058500;28;20178;-62
2021/10/17 05:52:31;;;;;;;15.80;12.40;;;3.50;99.90;;;;;;5072466;28;20261;-61
2021/10/17 05:54:56;;;;;;;15.13;13.73;;;3.50;99.90;;;;;;5067772;28;20190;-62
2021/10/17 05:57:22;;;;;;;15.93;13.47;;;3.50;99.90;;;;;;5052415;28;20191;-62
2021/10/17 05:59:48;;;;;;;12.97;11.77;;;3.50;99.90;;;;;;5054722;28;20187;-63
2021/10/17 06:02:15;;;;;;;14.27;12.97;;;3.50;99.90;;;;;;5072045;28;20198;-62
2021/10/17 06:04:41;;;;;;;14.63;13.17;;;3.40;99.90;;;;;;5053252;28;20546;-62
2021/10/17 06:07:07;;;;;;;17.50;13.57;;;3.40;99.90;;;;;;5052454;28;20171;-62
2021/10/17 06:09:38;;;;;;;16.67;13.20;;;3.40;99.90;;;;;;5069335;28;20632;-63
2021/10/17 06:12:04;;;;;;;14.07;12.77;;;3.40;99.90;;;;;;5072315;28;20636;-62
2021/10/17 06:14:31;;;;;;;15.77;13.53;;;3.40;99.90;;;;;;5055450;28;20214;-62
2021/10/17 06:16:57;;;;;;;16.00;13.37;;;3.40;99.90;;;;;;5052383;28;20228;-62
2021/10/17 06:19:22;;;;;;;16.60;13.27;;;3.40;99.90;;;;;;5066318;28;20190;-62
2021/10/17 06:21:49;;;;;;;13.93;12.57;;;3.50;99.90;;;;;;5051016;28;20193;-63
2021/10/17 06:24:14;;;;;;;13.87;12.53;;;3.60;99.90;;;;;;5054053;28;20687;-63
2021/10/17 06:26:41;;;;;;;13.70;12.30;;;3.70;99.90;;;;;;5051922;28;20179;-62
2021/10/17 06:29:07;;;;;;;16.47;12.20;;;3.80;99.90;;;;;;5070667;28;20181;-63
2021/10/17 06:31:33;;;;;;;15.63;14.10;;;3.90;99.90;;;;;;5071965;28;20166;-63
2021/10/17 06:33:58;;;;;;;19.83;14.43;;;4.00;99.90;;;;;;5054168;28;20402;-62
2021/10/17 06:36:24;;;;;;;16.03;14.37;;;4.10;99.90;;;;;;5051729;28;20258;-62
2021/10/17 06:38:50;;;;;;;17.20;15.40;;;4.20;99.90;;;;;;5067059;28;20208;-62
2021/10/17 06:41:15;;;;;;;16.73;13.97;;;4.20;99.90;;;;;;5071277;28;20209;-61
2021/10/17 06:43:41;;;;;;;15.90;13.93;;;4.30;99.90;;;;;;5057882;28;20297;-63
2021/10/17 06:46:06;;;;;;;17.27;14.53;;;4.40;99.90;;;;;;5051512;28;20171;-62
2021/10/17 06:48:33;;;;;;;19.10;14.33;;;4.60;99.90;;;;;;5063260;28;20253;-61
2021/10/17 06:50:59;;;;;;;15.47;13.83;;;4.70;99.90;;;;;;5071561;28;20170;-62
2021/10/17 06:53:24;;;;;;;19.13;13.57;;;4.70;99.90;;;;;;5061099;28;20268;-62
2021/10/17 06:55:50;;;;;;;15.73;13.47;;;4.90;99.90;;;;;;5051615;28;20258;-62
2021/10/17 06:58:16;;;;;;;15.80;14.17;;;5.00;99.90;;;;;;5059236;28;20217;-62
2021/10/17 07:00:41;;;;;;;21.73;14.20;;;5.10;99.90;;;;;;5067051;28;20198;-62
2021/10/17 07:03:07;;;;;;;16.63;14.87;;;5.30;99.90;;;;;;5051096;28;20301;-63
2021/10/17 07:05:33;;;;;;;23.37;15.20;;;5.50;99.90;;;;;;5053588;28;20537;-62
2021/10/17 07:07:58;;;;;;;19.50;15.00;;;5.80;99.90;;;;;;5071397;28;20216;-62
2021/10/17 07:10:24;;;;;;;16.93;14.57;;;6.00;99.90;;;;;;5070666;28;20170;-62
2021/10/17 07:12:49;;;;;;;21.07;15.43;;;6.40;99.90;;;;;;5051294;28;20588;-62
2021/10/17 07:15:15;;;;;;;18.53;13.73;;;6.70;99.90;;;;;;5051186;28;20562;-62
2021/10/17 07:17:40;;;;;;;18.03;14.97;;;7.00;99.90;;;;;;5068954;28;20289;-62
2021/10/17 07:20:07;;;;;;;16.97;14.90;;;7.40;99.90;;;;;;5070719;28;20171;-62
2021/10/17 07:22:33;;;;;;;16.77;13.80;;;7.80;99.90;;;;;;5054037;28;20631;-62
2021/10/17 07:24:58;;;;;;;14.87;13.23;;;8.10;99.90;;;;;;5051235;28;20182;-62
2021/10/17 07:27:24;;;;;;;14.97;13.37;;;8.20;99.90;;;;;;5065621;28;20194;-63
2021/10/17 07:29:49;;;;;;;17.63;12.50;;;8.30;99.90;;;;;;5070957;28;20178;-63
2021/10/17 07:32:15;;;;;;;14.20;12.80;;;8.30;99.90;;;;;;5061170;28;20216;-63
2021/10/17 07:34:41;;;;;;;12.47;11.37;;;8.30;99.90;;;;;;5071628;28;20177;-62
2021/10/17 07:37:06;;;;;;;16.27;11.90;;;8.20;99.90;;;;;;5073268;28;20182;-63
2021/10/17 07:39:32;;;;;;;15.27;12.13;;;8.20;99.90;;;;;;5066404;28;20189;-63
2021/10/17 07:41:59;;;;;;;16.67;13.23;;;8.30;99.90;;;;;;5071802;28;20224;-62
2021/10/17 07:44:25;;;;;;;14.37;12.53;;;8.30;99.90;;;;;;5075153;28;20322;-63
2021/10/17 07:46:50;;;;;;;14.07;12.67;;;8.50;99.90;;;;;;5055864;28;20179;-63
2021/10/17 07:49:16;;;;;;;13.33;12.07;;;8.90;99.90;;;;;;5061885;28;20542;-62
2021/10/17 07:51:42;;;;;;;14.07;12.57;;;9.10;99.90;;;;;;5074856;28;20177;-62
2021/10/17 07:54:08;;;;;;;12.73;11.50;;;9.30;99.90;;;;;;5072422;28;20190;-61
2021/10/17 07:56:34;;;;;;;11.63;10.43;;;9.60;99.90;;;;;;5064109;28;20174;-61
2021/10/17 07:59:00;;;;;;;14.77;11.80;;;10.00;99.90;;;;;;5074524;28;20178;-61
2021/10/17 08:01:25;;;;;;;12.37;10.37;;;10.40;99.90;;;;;;5071625;28;20182;-63
2021/10/17 08:03:51;;;;;;;9.63;8.73;;;10.70;99.90;;;;;;5054383;28;20238;-63
2021/10/17 08:06:17;;;;;;;10.07;8.97;;;11.10;99.90;;;;;;5055451;28;20556;-62
2021/10/17 08:08:42;;;;;;;8.23;7.50;;;11.80;99.90;;;;;;5054625;28;20258;-63
2021/10/17 08:11:08;;;;;;;8.50;7.80;;;12.30;99.90;;;;;;5068208;28;20182;-63
2021/10/17 08:13:34;;;;;;;8.37;7.57;;;12.90;99.90;;;;;;5072621;28;20202;-63
2021/10/17 08:15:59;;;;;;;8.17;7.37;;;13.30;99.90;;;;;;5062775;28;20210;-62
2021/10/17 08:18:26;;;;;;;8.53;7.70;;;13.60;99.90;;;;;;5071044;28;22120;-63
2021/10/17 08:20:53;;;;;;;9.17;7.23;;;13.60;99.90;;;;;;5051052;28;20187;-63
2021/10/17 08:23:19;;;;;;;8.30;7.53;;;13.80;99.90;;;;;;5063630;28;20215;-63
2021/10/17 08:25:44;;;;;;;8.23;7.47;;;14.00;99.90;;;;;;5072005;28;20235;-63
2021/10/17 08:28:11;;;;;;;8.47;7.70;;;14.20;99.90;;;;;;5063131;28;20551;-63
2021/10/17 08:30:37;;;;;;;8.47;7.67;;;14.30;99.90;;;;;;5053720;28;20170;-63
2021/10/17 08:33:03;;;;;;;9.37;8.37;;;14.40;99.90;;;;;;5054969;28;20256;-63
2021/10/17 08:35:28;;;;;;;8.13;7.43;;;14.80;99.90;;;;;;5064109;28;20186;-62
2021/10/17 08:37:54;;;;;;;8.30;7.67;;;15.20;99.90;;;;;;5054336;28;20182;-63
2021/10/17 08:40:19;;;;;;;10.10;7.37;;;15.20;99.90;;;;;;5053349;28;20186;-63
2021/10/17 08:42:46;;;;;;;7.80;7.13;;;15.20;99.90;;;;;;5059837;28;20271;-63
2021/10/17 08:45:11;;;;;;;8.43;7.70;;;15.50;99.90;;;;;;5062864;28;20178;-63
2021/10/17 08:47:37;;;;;;;8.00;7.27;;;16.00;99.90;;;;;;5060113;28;20347;-63
2021/10/17 08:50:04;;;;;;;8.53;7.73;;;16.50;99.90;;;;;;5053481;28;20277;-63
2021/10/17 08:52:30;;;;;;;11.07;7.90;;;16.70;99.90;;;;;;5054191;28;20273;-63
2021/10/17 08:54:56;;;;;;;8.77;7.97;;;16.80;99.90;;;;;;5053793;28;20623;-63
2021/10/17 08:57:22;;;;;;;10.13;7.77;;;17.20;99.90;;;;;;5055959;28;20194;-63
2021/10/17 08:59:50;;;;;;;10.10;7.90;;;17.10;99.90;;;;;;5067442;28;20194;-63
2021/10/17 09:02:18;;;;;;;10.03;8.37;;;16.90;99.90;;;;;;5072893;28;20280;-63
2021/10/17 09:05:07;;;;;;;9.30;8.47;;;16.50;99.90;;;;;;5068455;28;20193;-63
2021/10/17 09:07:33;;;;;;;9.27;7.67;;;16.10;99.90;;;;;;5073510;28;20185;-62
2021/10/17 09:10:15;;;;;;;9.23;7.70;;;15.80;99.90;;;;;;5060433;28;20591;-63
2021/10/17 09:12:43;;;;;;;12.17;9.70;;;15.80;99.90;;;;;;5054475;28;20198;-63
2021/10/17 09:15:30;;;;;;;10.73;9.07;;;15.60;99.90;;;;;;5068776;28;20239;-63
2021/10/17 09:18:05;;;;;;;9.20;8.17;;;15.60;99.90;;;;;;5060321;28;20248;-63
2021/10/17 09:20:49;;;;;;;12.30;8.10;;;15.50;99.90;;;;;;5072924;28;20178;-63
2021/10/17 09:23:26;;;;;;;8.83;8.00;;;15.50;99.90;;;;;;5059440;28;20687;-63
2021/10/17 09:25:54;;;;;;;9.60;8.70;;;16.00;99.90;;;;;;5057558;28;20265;-63
2021/10/17 09:28:22;;;;;;;9.73;8.73;;;16.30;99.90;;;;;;5053510;28;20185;-63
2021/10/17 09:30:57;;;;;;;9.97;8.17;;;16.40;99.90;;;;;;5052618;28;20197;-63
2021/10/17 09:33:22;;;;;;;10.53;7.40;;;17.30;99.90;;;;;;5055771;28;20554;-63
2021/10/17 09:35:48;;;;;;;10.10;7.57;;;18.00;99.90;;;;;;5071297;28;20186;-63
2021/10/17 09:38:20;;;;;;;8.40;7.47;;;18.80;99.90;;;;;;5070053;28;20197;-63
2021/10/17 09:40:46;;;;;;;11.07;7.27;;;19.30;99.90;;;;;;5072421;28;20542;-63
2021/10/17 09:43:25;;;;;;;10.27;7.90;;;19.10;99.90;;;;;;5055440;28;20627;-63
2021/10/17 09:46:13;;;;;;;7.73;7.10;;;19.20;99.90;;;;;;5051002;28;20189;-63
2021/10/17 09:48:40;;;;;;;8.60;7.70;;;19.30;99.90;;;;;;5052394;28;20175;-63
2021/10/17 09:51:11;;;;;;;11.33;7.97;;;19.50;99.90;;;;;;5056571;28;20200;-63
2021/10/17 09:53:44;;;;;;;8.55;7.68;;;19.90;99.90;;;;;;5072690;28;20202;-63
2021/10/17 09:56:40;;;;;;;8.93;8.10;;;20.10;99.90;;;;;;5061424;28;20621;-63
2021/10/17 09:59:07;;;;;;;8.10;7.30;;;20.30;99.90;;;;;;5052152;28;20519;-63
2021/10/17 10:01:34;;;;;;;8.07;7.20;;;20.30;99.90;;;;;;5053463;28;20269;-63
2021/10/17 10:04:02;;;;;;;7.82;6.97;;;20.50;99.90;;;;;;5052846;28;20284;-63
2021/10/17 10:06:29;;;;;;;9.07;7.43;;;20.70;99.90;;;;;;5060882;28;20181;-62
2021/10/17 10:08:57;;;;;;;8.53;7.70;;;20.60;99.90;;;;;;5052136;28;20179;-63
2021/10/17 10:11:24;;;;;;;10.98;7.47;;;20.50;99.90;;;;;;5059445;28;20450;-62
2021/10/17 10:13:52;;;;;;;9.35;7.93;;;20.50;99.90;;;;;;5053345;28;20198;-62
2021/10/17 10:16:20;;;;;;;9.68;7.30;;;20.80;99.90;;;;;;5056556;28;20587;-63
2021/10/17 10:18:50;;;;;;;8.73;7.07;;;21.10;99.90;;;;;;5071730;28;20189;-63
2021/10/17 10:21:15;;;;;;;9.00;7.82;;;21.40;99.90;;;;;;5066984;28;20174;-62
2021/10/17 10:23:41;;;;;;;8.60;7.50;;;21.40;99.90;;;;;;5071839;28;20213;-63
2021/10/17 10:26:07;;;;;;;7.47;6.72;;;21.60;99.90;;;;;;5069895;28;20353;-63
2021/10/17 10:28:34;;;;;;;9.43;7.70;;;21.90;99.90;;;;;;5065965;28;20178;-62
2021/10/17 10:30:59;;;;;;;7.40;6.70;;;22.10;99.90;;;;;;5069995;28;20216;-62
2021/10/17 10:33:29;;;;;;;8.70;7.43;;;22.20;99.90;;;;;;5071914;28;20278;-63
2021/10/17 10:36:13;;;;;;;8.63;7.35;;;22.20;99.90;;;;;;5059545;28;20560;-63
2021/10/17 10:38:48;;;;;;;7.45;6.60;;;22.40;99.90;;;;;;5051057;28;20265;-63
2021/10/17 10:41:15;;;;;;;11.05;6.78;;;22.70;99.90;;;;;;5051470;28;20530;-62
2021/10/17 10:43:41;;;;;;;7.32;6.65;;;22.40;99.90;;;;;;5054180;28;20217;-63
2021/10/17 10:46:07;;;;;;;8.32;7.40;;;21.70;99.90;;;;;;5064977;28;20639;-63
2021/10/17 10:48:45;;;;;;;8.17;7.37;;;21.00;99.90;;;;;;5070364;28;20636;-63
2021/10/17 10:51:11;;;;;;;8.00;7.30;;;20.70;99.90;;;;;;5056546;28;20174;-63
2021/10/17 10:53:51;;;;;;;7.70;7.07;;;20.50;99.90;;;;;;5070111;28;20201;-63
2021/10/17 10:56:41;;;;;;;7.53;6.83;;;20.00;99.90;;;;;;5051975;28;20249;-63
2021/10/17 10:59:11;;;;;;;7.90;7.30;;;19.70;99.90;;;;;;5051201;28;20179;-63
2021/10/17 11:02:18;;;;;;;7.73;6.80;;;19.30;99.90;;;;;;5054104;28;20182;-62
2021/10/17 11:04:46;;;;;;;9.80;6.87;;;19.40;99.90;;;;;;5055545;28;20186;-62
2021/10/17 11:07:39;;;;;;;7.57;6.77;;;19.60;99.90;;;;;;5059288;28;20226;-63
2021/10/17 11:10:26;;;;;;;6.90;6.30;;;19.80;99.90;;;;;;5071141;28;20178;-63
2021/10/17 11:12:58;;;;;;;7.23;6.63;;;20.00;99.90;;;;;;5051292;28;20197;-63
2021/10/17 11:15:29;;;;;;;7.40;6.77;;;20.10;99.90;;;;;;5062990;28;20182;-62
2021/10/17 11:18:04;;;;;;;9.03;7.50;;;19.80;99.90;;;;;;5054059;28;20175;-62
2021/10/17 11:20:37;;;;;;;7.40;6.80;;;19.70;99.90;;;;;;5061291;28;20210;-63
2021/10/17 11:23:05;;;;;;;6.73;6.30;;;19.90;99.90;;;;;;5063592;28;20552;-63
2021/10/17 11:25:32;;;;;;;7.37;6.67;;;20.20;99.90;;;;;;5069918;28;20178;-62
2021/10/17 11:27:58;;;;;;;6.73;6.10;;;20.30;99.90;;;;;;5071395;28;20269;-63
2021/10/17 11:30:23;;;;;;;9.93;7.07;;;20.50;99.90;;;;;;5057387;28;20186;-63
2021/10/17 11:32:50;;;;;;;6.07;5.57;;;20.60;99.90;;;;;;5064623;28;20197;-63
2021/10/17 11:35:15;;;;;;;7.57;6.73;;;20.80;99.90;;;;;;5059882;28;20239;-63
2021/10/17 11:37:51;;;;;;;8.30;7.20;;;20.80;99.90;;;;;;5063600;28;20567;-63
2021/10/17 11:40:17;;;;;;;7.57;6.97;;;20.80;99.90;;;;;;5060044;28;20182;-63
2021/10/17 11:42:58;;;;;;;7.40;6.60;;;20.70;99.90;;;;;;5063406;28;20213;-63
2021/10/17 11:45:30;;;;;;;7.97;6.50;;;20.70;99.90;;;;;;5053015;28;20240;-63
2021/10/17 11:47:58;;;;;;;6.77;6.03;;;20.90;99.90;;;;;;5057268;28;20641;-63
2021/10/17 11:50:29;;;;;;;5.93;5.50;;;20.90;99.90;;;;;;5070697;28;20174;-63
2021/10/17 11:53:01;;;;;;;5.50;5.07;;;20.70;99.90;;;;;;5065664;28;20209;-63
2021/10/17 11:55:31;;;;;;;6.67;6.07;;;20.50;99.90;;;;;;5049962;28;20658;-64
2021/10/17 11:57:56;;;;;;;7.03;6.43;;;20.50;99.90;;;;;;5061669;28;20227;-64
2021/10/17 12:00:31;;;;;;;6.83;6.13;;;20.70;99.90;;;;;;5054037;28;20186;-62
2021/10/17 12:02:57;;;;;;;5.00;4.73;;;20.70;99.90;;;;;;5070761;28;20292;-62
2021/10/17 12:05:26;;;;;;;5.50;5.10;;;20.70;99.90;;;;;;5057572;28;20624;-62
2021/10/17 12:07:56;;;;;;;5.73;5.33;;;20.70;99.90;;;;;;5050861;28;20167;-62
2021/10/17 12:10:24;;;;;;;5.10;4.70;;;20.60;99.90;;;;;;5062552;28;20182;-62
2021/10/17 12:12:50;;;;;;;5.10;4.80;;;20.50;99.90;;;;;;5056761;28;20206;-62
2021/10/17 12:15:16;;;;;;;4.83;4.63;;;20.40;99.90;;;;;;5051268;28;20213;-63
2021/10/17 12:17:42;;;;;;;5.00;4.70;;;20.30;99.90;;;;;;5063548;28;20189;-63
2021/10/17 12:20:16;;;;;;;6.10;5.53;;;20.40;99.90;;;;;;5073458;28;20182;-63
2021/10/17 12:22:42;;;;;;;6.63;6.03;;;20.10;99.90;;;;;;5066107;28;20209;-63
2021/10/17 12:25:09;;;;;;;5.17;4.90;;;19.80;99.90;;;;;;5062299;28;20227;-63
2021/10/17 12:27:37;;;;;;;5.50;5.10;;;19.60;99.90;;;;;;5072230;28;20184;-63
2021/10/17 12:30:11;;;;;;;6.10;5.70;;;19.40;99.90;;;;;;5055007;28;20263;-62
2021/10/17 12:32:49;;;;;;;5.20;4.90;;;19.30;99.90;;;;;;5055590;28;20204;-63
2021/10/17 12:35:18;;;;;;;5.60;5.20;;;19.30;99.90;;;;;;5074001;28;20178;-63
2021/10/17 12:37:43;;;;;;;5.37;4.97;;;19.20;99.90;;;;;;5061466;28;20601;-63
2021/10/17 12:40:10;;;;;;;5.73;5.33;;;19.00;99.90;;;;;;5054806;28;20269;-63
2021/10/17 12:42:59;;;;;;;6.03;5.53;;;18.80;99.90;;;;;;5054881;28;20214;-63